sensor_id;sensor_type;location;lat;lon;timestamp;pressure;altitude;pressure_sealevel;temperature;humidity
66398;BME280;54877;51.504;3.894;2023-03-13T00:00:52;100140.69;;;12.61;73.63
66398;BME280;54877;51.504;3.894;2023-03-13T00:03:18;100131.03;;;12.60;73.87
66398;BME280;54877;51.504;3.894;2023-03-13T00:05:44;100125.06;;;12.57;73.89
66398;BME280;54877;51.504;3.894;2023-03-13T00:08:09;100126.78;;;12.45;74.38
66398;BME280;54877;51.504;3.894;2023-03-13T00:10:35;100126.78;;;12.45;74.74
66398;BME280;54877;51.504;3.894;2023-03-13T00:13:02;100128.06;;;12.52;74.32
66398;BME280;54877;51.504;3.894;2023-03-13T00:15:27;100115.09;;;12.60;74.40
66398;BME280;54877;51.504;3.894;2023-03-13T00:17:52;100123.59;;;12.65;74.15
66398;BME280;54877;51.504;3.894;2023-03-13T00:20:18;100107.84;;;12.62;74.51
66398;BME280;54877;51.504;3.894;2023-03-13T00:22:43;100103.63;;;12.72;74.20
66398;BME280;54877;51.504;3.894;2023-03-13T00:25:08;100107.22;;;12.71;74.34
66398;BME280;54877;51.504;3.894;2023-03-13T00:27:34;100099.56;;;12.79;73.82
66398;BME280;54877;51.504;3.894;2023-03-13T00:29:59;100083.09;;;12.74;74.42
66398;BME280;54877;51.504;3.894;2023-03-13T00:32:25;100088.09;;;12.79;74.51
66398;BME280;54877;51.504;3.894;2023-03-13T00:34:50;100088.28;;;12.76;74.81
66398;BME280;54877;51.504;3.894;2023-03-13T00:37:15;100071.72;;;12.85;74.49
66398;BME280;54877;51.504;3.894;2023-03-13T00:39:41;100070.66;;;12.87;74.51
66398;BME280;54877;51.504;3.894;2023-03-13T00:42:06;100060.25;;;12.84;74.93
66398;BME280;54877;51.504;3.894;2023-03-13T00:44:31;100066.63;;;12.94;74.49
66398;BME280;54877;51.504;3.894;2023-03-13T00:46:57;100048.22;;;12.91;74.68
66398;BME280;54877;51.504;3.894;2023-03-13T00:49:22;100059.16;;;13.00;74.48
66398;BME280;54877;51.504;3.894;2023-03-13T00:51:47;100046.59;;;13.02;74.43
66398;BME280;54877;51.504;3.894;2023-03-13T00:54:13;100048.41;;;13.14;74.26
66398;BME280;54877;51.504;3.894;2023-03-13T00:56:38;100050.09;;;13.15;74.22
66398;BME280;54877;51.504;3.894;2023-03-13T00:59:03;100056.25;;;13.15;74.26
66398;BME280;54877;51.504;3.894;2023-03-13T01:01:30;100045.03;;;13.12;74.61
66398;BME280;54877;51.504;3.894;2023-03-13T01:03:58;100041.38;;;13.25;74.22
66398;BME280;54877;51.504;3.894;2023-03-13T01:06:32;100034.69;;;13.20;74.19
66398;BME280;54877;51.504;3.894;2023-03-13T01:09:00;100014.50;;;13.17;74.25
66398;BME280;54877;51.504;3.894;2023-03-13T01:11:29;100022.13;;;13.22;74.31
66398;BME280;54877;51.504;3.894;2023-03-13T01:13:57;100020.19;;;13.24;74.39
66398;BME280;54877;51.504;3.894;2023-03-13T01:16:24;100009.56;;;13.24;74.45
66398;BME280;54877;51.504;3.894;2023-03-13T01:18:52;100002.31;;;13.26;74.54
66398;BME280;54877;51.504;3.894;2023-03-13T01:21:20;100000.19;;;13.31;74.26
66398;BME280;54877;51.504;3.894;2023-03-13T01:23:46;99997.00;;;13.26;74.80
66398;BME280;54877;51.504;3.894;2023-03-13T01:26:13;99982.31;;;13.33;74.77
66398;BME280;54877;51.504;3.894;2023-03-13T01:28:39;99984.56;;;13.26;74.81
66398;BME280;54877;51.504;3.894;2023-03-13T01:31:17;99975.69;;;13.38;74.62
66398;BME280;54877;51.504;3.894;2023-03-13T01:33:53;99960.06;;;13.34;75.12
66398;BME280;54877;51.504;3.894;2023-03-13T01:36:20;99956.47;;;13.46;74.53
66398;BME280;54877;51.504;3.894;2023-03-13T01:38:47;99954.91;;;13.43;74.54
66398;BME280;54877;51.504;3.894;2023-03-13T01:41:13;99953.38;;;13.52;74.36
66398;BME280;54877;51.504;3.894;2023-03-13T01:43:39;99943.41;;;13.43;74.43
66398;BME280;54877;51.504;3.894;2023-03-13T01:46:16;99935.47;;;13.54;74.56
66398;BME280;54877;51.504;3.894;2023-03-13T01:51:40;99932.59;;;13.57;74.76
66398;BME280;54877;51.504;3.894;2023-03-13T01:54:16;99932.59;;;13.57;74.85
66398;BME280;54877;51.504;3.894;2023-03-13T01:56:53;99920.00;;;13.59;74.78
66398;BME280;54877;51.504;3.894;2023-03-13T01:59:37;99928.75;;;13.61;74.98
66398;BME280;54877;51.504;3.894;2023-03-13T02:02:06;99941.81;;;13.64;74.76
66398;BME280;54877;51.504;3.894;2023-03-13T02:04:35;99932.22;;;13.62;75.00
66398;BME280;54877;51.504;3.894;2023-03-13T02:07:05;99930.66;;;13.59;75.21
66398;BME280;54877;51.504;3.894;2023-03-13T02:09:38;99935.28;;;13.68;74.92
66398;BME280;54877;51.504;3.894;2023-03-13T02:14:42;99935.28;;;13.68;75.28
66398;BME280;54877;51.504;3.894;2023-03-13T02:17:10;99926.59;;;13.77;74.83
66398;BME280;54877;51.504;3.894;2023-03-13T02:27:24;99916.19;;;13.74;75.22
66398;BME280;54877;51.504;3.894;2023-03-13T02:29:50;99915.97;;;13.88;74.56
66398;BME280;54877;51.504;3.894;2023-03-13T02:32:16;99899.00;;;13.89;74.52
66398;BME280;54877;51.504;3.894;2023-03-13T02:34:43;99894.53;;;13.90;74.43
66398;BME280;54877;51.504;3.894;2023-03-13T02:37:12;99909.66;;;13.89;74.69
66398;BME280;54877;51.504;3.894;2023-03-13T02:39:40;99899.25;;;13.86;74.92
66398;BME280;54877;51.504;3.894;2023-03-13T02:42:09;99885.94;;;13.86;74.83
66398;BME280;54877;51.504;3.894;2023-03-13T02:44:38;99888.75;;;13.96;74.72
66398;BME280;54877;51.504;3.894;2023-03-13T02:47:04;99885.22;;;13.95;74.87
66398;BME280;54877;51.504;3.894;2023-03-13T02:49:30;99875.81;;;14.02;74.67
66398;BME280;54877;51.504;3.894;2023-03-13T02:51:57;99875.56;;;14.05;74.36
66398;BME280;54877;51.504;3.894;2023-03-13T02:54:32;99890.78;;;14.03;74.61
66398;BME280;54877;51.504;3.894;2023-03-13T02:57:02;99887.28;;;14.03;74.68
66398;BME280;54877;51.504;3.894;2023-03-13T02:59:28;99895.66;;;14.09;74.50
66398;BME280;54877;51.504;3.894;2023-03-13T03:01:54;99890.94;;;14.02;74.79
66398;BME280;54877;51.504;3.894;2023-03-13T03:04:23;99895.66;;;13.98;74.90
66398;BME280;54877;51.504;3.894;2023-03-13T03:06:50;99895.16;;;14.04;74.97
66398;BME280;54877;51.504;3.894;2023-03-13T03:09:16;99884.28;;;14.07;74.65
66398;BME280;54877;51.504;3.894;2023-03-13T03:11:43;99875.06;;;14.11;74.52
66398;BME280;54877;51.504;3.894;2023-03-13T03:14:09;99869.25;;;14.18;74.19
66398;BME280;54877;51.504;3.894;2023-03-13T03:16:35;99865.16;;;14.25;74.24
66398;BME280;54877;51.504;3.894;2023-03-13T03:19:00;99854.75;;;14.22;74.07
66398;BME280;54877;51.504;3.894;2023-03-13T03:21:26;99860.78;;;14.24;74.05
66398;BME280;54877;51.504;3.894;2023-03-13T03:23:52;99848.94;;;14.28;74.14
66398;BME280;54877;51.504;3.894;2023-03-13T03:26:17;99841.19;;;14.25;74.04
66398;BME280;54877;51.504;3.894;2023-03-13T03:28:42;99845.06;;;14.32;73.68
66398;BME280;54877;51.504;3.894;2023-03-13T03:31:09;99849.19;;;14.36;73.44
66398;BME280;54877;51.504;3.894;2023-03-13T03:33:36;99841.66;;;14.30;73.61
66398;BME280;54877;51.504;3.894;2023-03-13T03:36:03;99831.97;;;14.29;73.72
66398;BME280;54877;51.504;3.894;2023-03-13T03:38:31;99831.50;;;14.35;73.52
66398;BME280;54877;51.504;3.894;2023-03-13T03:40:57;99825.94;;;14.38;73.27
66398;BME280;54877;51.504;3.894;2023-03-13T03:43:22;99828.13;;;14.44;73.23
66398;BME280;54877;51.504;3.894;2023-03-13T03:45:48;99824.25;;;14.37;73.21
66398;BME280;54877;51.504;3.894;2023-03-13T03:48:13;99821.56;;;14.37;73.46
66398;BME280;54877;51.504;3.894;2023-03-13T03:50:38;99821.81;;;14.34;73.30
66398;BME280;54877;51.504;3.894;2023-03-13T03:53:04;99827.91;;;14.36;73.07
66398;BME280;54877;51.504;3.894;2023-03-13T03:55:29;99835.88;;;14.36;72.97
66398;BME280;54877;51.504;3.894;2023-03-13T03:57:54;99826.63;;;14.51;72.64
66398;BME280;54877;51.504;3.894;2023-03-13T04:00:20;99822.78;;;14.44;72.72
66398;BME280;54877;51.504;3.894;2023-03-13T04:02:46;99820.63;;;14.38;72.92
66398;BME280;54877;51.504;3.894;2023-03-13T04:05:11;99818.56;;;14.41;72.69
66398;BME280;54877;51.504;3.894;2023-03-13T04:07:37;99813.56;;;14.48;72.28
66398;BME280;54877;51.504;3.894;2023-03-13T04:10:03;99797.94;;;14.54;72.02
66398;BME280;54877;51.504;3.894;2023-03-13T04:12:29;99808.59;;;14.54;72.12
66398;BME280;54877;51.504;3.894;2023-03-13T04:14:54;99803.25;;;14.54;71.70
66398;BME280;54877;51.504;3.894;2023-03-13T04:17:20;99800.19;;;14.59;71.67
66398;BME280;54877;51.504;3.894;2023-03-13T04:19:45;99799.53;;;14.46;71.94
66398;BME280;54877;51.504;3.894;2023-03-13T04:22:10;99783.66;;;14.44;71.68
66398;BME280;54877;51.504;3.894;2023-03-13T04:24:36;99798.28;;;14.50;71.14
66398;BME280;54877;51.504;3.894;2023-03-13T04:27:01;99791.78;;;14.43;71.34
66398;BME280;54877;51.504;3.894;2023-03-13T04:29:27;99796.25;;;14.42;70.80
66398;BME280;54877;51.504;3.894;2023-03-13T04:31:53;99805.47;;;14.49;70.63
66398;BME280;54877;51.504;3.894;2023-03-13T04:34:19;99796.63;;;14.49;70.50
66398;BME280;54877;51.504;3.894;2023-03-13T04:36:44;99785.69;;;14.63;70.04
66398;BME280;54877;51.504;3.894;2023-03-13T04:39:10;99782.44;;;14.48;70.14
66398;BME280;54877;51.504;3.894;2023-03-13T04:41:35;99771.91;;;14.58;69.38
66398;BME280;54877;51.504;3.894;2023-03-13T04:44:00;99766.53;;;14.69;68.96
66398;BME280;54877;51.504;3.894;2023-03-13T04:46:26;99774.78;;;14.66;68.98
66398;BME280;54877;51.504;3.894;2023-03-13T04:48:51;99770.59;;;14.73;68.36
66398;BME280;54877;51.504;3.894;2023-03-13T04:51:16;99764.09;;;14.66;68.46
66398;BME280;54877;51.504;3.894;2023-03-13T04:53:42;99773.53;;;14.70;68.26
66398;BME280;54877;51.504;3.894;2023-03-13T04:56:07;99758.53;;;14.69;68.40
66398;BME280;54877;51.504;3.894;2023-03-13T04:58:35;99753.75;;;14.73;68.38
66398;BME280;54877;51.504;3.894;2023-03-13T05:01:00;99755.38;;;14.64;68.77
66398;BME280;54877;51.504;3.894;2023-03-13T05:03:25;99752.91;;;14.72;68.60
66398;BME280;54877;51.504;3.894;2023-03-13T05:05:51;99754.38;;;14.76;68.74
66398;BME280;54877;51.504;3.894;2023-03-13T05:08:16;99739.13;;;14.67;68.83
66398;BME280;54877;51.504;3.894;2023-03-13T05:10:42;99732.97;;;14.66;68.87
66398;BME280;54877;51.504;3.894;2023-03-13T05:13:08;99727.31;;;14.60;69.05
66398;BME280;54877;51.504;3.894;2023-03-13T05:15:34;99742.53;;;14.69;69.31
66398;BME280;54877;51.504;3.894;2023-03-13T05:17:59;99741.69;;;14.68;68.97
66398;BME280;54877;51.504;3.894;2023-03-13T05:20:24;99727.78;;;14.65;69.06
66398;BME280;54877;51.504;3.894;2023-03-13T05:22:50;99721.53;;;14.76;68.77
66398;BME280;54877;51.504;3.894;2023-03-13T05:25:15;99714.81;;;14.72;68.87
66398;BME280;54877;51.504;3.894;2023-03-13T05:27:40;99737.53;;;14.76;68.67
66398;BME280;54877;51.504;3.894;2023-03-13T05:30:06;99735.72;;;14.76;68.81
66398;BME280;54877;51.504;3.894;2023-03-13T05:32:32;99739.28;;;14.86;68.62
66398;BME280;54877;51.504;3.894;2023-03-13T05:34:57;99725.75;;;14.78;68.58
66398;BME280;54877;51.504;3.894;2023-03-13T05:37:23;99718.56;;;14.90;68.23
66398;BME280;54877;51.504;3.894;2023-03-13T05:39:48;99718.97;;;14.85;68.47
66398;BME280;54877;51.504;3.894;2023-03-13T05:42:14;99716.16;;;14.87;68.05
66398;BME280;54877;51.504;3.894;2023-03-13T05:44:39;99715.47;;;14.94;67.79
66398;BME280;54877;51.504;3.894;2023-03-13T05:47:04;99716.16;;;14.87;67.87
66398;BME280;54877;51.504;3.894;2023-03-13T05:49:30;99729.81;;;14.93;67.92
66398;BME280;54877;51.504;3.894;2023-03-13T05:51:55;99717.75;;;14.78;68.03
66398;BME280;54877;51.504;3.894;2023-03-13T05:54:20;99718.50;;;14.80;68.07
66398;BME280;54877;51.504;3.894;2023-03-13T05:56:46;99713.44;;;14.77;67.88
66398;BME280;54877;51.504;3.894;2023-03-13T05:59:14;99720.69;;;14.75;67.89
66398;BME280;54877;51.504;3.894;2023-03-13T06:01:39;99728.44;;;14.78;67.87
66398;BME280;54877;51.504;3.894;2023-03-13T06:04:05;99730.19;;;14.68;68.57
66398;BME280;54877;51.504;3.894;2023-03-13T06:06:30;99731.59;;;14.72;68.62
66398;BME280;54877;51.504;3.894;2023-03-13T06:08:55;99722.38;;;14.76;68.51
66398;BME280;54877;51.504;3.894;2023-03-13T06:11:21;99724.25;;;14.64;69.19
66398;BME280;54877;51.504;3.894;2023-03-13T06:13:46;99735.50;;;14.68;69.24
66398;BME280;54877;51.504;3.894;2023-03-13T06:16:11;99726.88;;;14.76;69.24
66398;BME280;54877;51.504;3.894;2023-03-13T06:18:37;99739.66;;;14.61;69.97
66398;BME280;54877;51.504;3.894;2023-03-13T06:21:02;99737.53;;;14.55;70.22
66398;BME280;54877;51.504;3.894;2023-03-13T06:23:27;99731.19;;;14.56;70.58
66398;BME280;54877;51.504;3.894;2023-03-13T06:25:53;99736.31;;;14.48;70.85
66398;BME280;54877;51.504;3.894;2023-03-13T06:28:19;99734.25;;;14.51;70.68
66398;BME280;54877;51.504;3.894;2023-03-13T06:30:45;99739.50;;;14.42;71.29
66398;BME280;54877;51.504;3.894;2023-03-13T06:33:11;99736.47;;;14.46;71.35
66398;BME280;54877;51.504;3.894;2023-03-13T06:35:40;99738.94;;;14.38;71.72
66398;BME280;54877;51.504;3.894;2023-03-13T06:38:06;99733.25;;;14.32;72.08
66398;BME280;54877;51.504;3.894;2023-03-13T06:40:31;99734.09;;;14.32;72.04
66398;BME280;54877;51.504;3.894;2023-03-13T06:42:57;99728.13;;;14.29;72.27
66398;BME280;54877;51.504;3.894;2023-03-13T06:45:22;99726.72;;;14.25;72.44
66398;BME280;54877;51.504;3.894;2023-03-13T06:47:48;99727.66;;;14.35;72.18
66398;BME280;54877;51.504;3.894;2023-03-13T06:50:15;99719.19;;;14.30;72.32
66398;BME280;54877;51.504;3.894;2023-03-13T06:52:41;99726.72;;;14.25;72.42
66398;BME280;54877;51.504;3.894;2023-03-13T06:55:06;99723.53;;;14.31;72.19
66398;BME280;54877;51.504;3.894;2023-03-13T06:57:32;99719.28;;;14.39;71.99
66398;BME280;54877;51.504;3.894;2023-03-13T06:59:57;99717.72;;;14.37;72.03
66398;BME280;54877;51.504;3.894;2023-03-13T07:02:23;99710.50;;;14.28;72.35
66398;BME280;54877;51.504;3.894;2023-03-13T07:04:48;99704.81;;;14.21;72.30
66398;BME280;54877;51.504;3.894;2023-03-13T07:07:14;99714.50;;;14.33;72.11
66398;BME280;54877;51.504;3.894;2023-03-13T07:09:39;99712.53;;;14.35;71.94
66398;BME280;54877;51.504;3.894;2023-03-13T07:12:04;99703.19;;;14.41;71.81
66398;BME280;54877;51.504;3.894;2023-03-13T07:14:30;99700.19;;;14.34;72.00
66398;BME280;54877;51.504;3.894;2023-03-13T07:16:57;99706.84;;;14.29;72.22
66398;BME280;54877;51.504;3.894;2023-03-13T07:19:23;99710.59;;;14.37;71.86
66398;BME280;54877;51.504;3.894;2023-03-13T07:21:48;99701.50;;;14.29;71.83
66398;BME280;54877;51.504;3.894;2023-03-13T07:24:14;99711.31;;;14.39;71.74
66398;BME280;54877;51.504;3.894;2023-03-13T07:26:39;99718.19;;;14.42;71.72
66398;BME280;54877;51.504;3.894;2023-03-13T07:29:04;99713.66;;;14.33;71.70
66398;BME280;54877;51.504;3.894;2023-03-13T07:31:30;99721.34;;;14.47;71.42
66398;BME280;54877;51.504;3.894;2023-03-13T07:33:57;99717.97;;;14.34;71.74
66398;BME280;54877;51.504;3.894;2023-03-13T07:36:23;99716.25;;;14.44;71.67
66398;BME280;54877;51.504;3.894;2023-03-13T07:38:49;99732.00;;;14.47;71.32
66398;BME280;54877;51.504;3.894;2023-03-13T07:41:16;99718.03;;;14.54;71.20
66398;BME280;54877;51.504;3.894;2023-03-13T07:43:43;99712.75;;;14.64;70.48
66398;BME280;54877;51.504;3.894;2023-03-13T07:46:10;99692.31;;;14.85;69.93
66398;BME280;54877;51.504;3.894;2023-03-13T07:48:38;99706.47;;;14.86;69.59
66398;BME280;54877;51.504;3.894;2023-03-13T07:51:06;99697.13;;;14.91;69.10
66398;BME280;54877;51.504;3.894;2023-03-13T07:53:36;99707.81;;;15.01;68.90
66398;BME280;54877;51.504;3.894;2023-03-13T07:56:06;99699.56;;;15.04;68.14
66398;BME280;54877;51.504;3.894;2023-03-13T07:58:35;99695.34;;;15.01;67.53
66398;BME280;54877;51.504;3.894;2023-03-13T08:01:09;99695.78;;;15.06;67.54
66398;BME280;54877;51.504;3.894;2023-03-13T08:03:36;99698.19;;;15.09;67.25
66398;BME280;54877;51.504;3.894;2023-03-13T08:06:04;99714.94;;;15.21;66.85
66398;BME280;54877;51.504;3.894;2023-03-13T08:08:32;99709.66;;;15.30;66.58
66398;BME280;54877;51.504;3.894;2023-03-13T08:11:01;99702.19;;;15.24;66.27
66398;BME280;54877;51.504;3.894;2023-03-13T08:13:35;99713.75;;;15.35;66.20
66398;BME280;54877;51.504;3.894;2023-03-13T08:16:06;99708.31;;;15.46;66.03
66398;BME280;54877;51.504;3.894;2023-03-13T08:18:35;99711.00;;;15.46;65.82
66398;BME280;54877;51.504;3.894;2023-03-13T08:21:05;99695.88;;;15.56;65.52
66398;BME280;54877;51.504;3.894;2023-03-13T08:23:40;99703.09;;;15.65;65.19
66398;BME280;54877;51.504;3.894;2023-03-13T08:26:07;99695.66;;;15.68;65.01
66398;BME280;54877;51.504;3.894;2023-03-13T08:28:35;99685.53;;;15.62;64.57
66398;BME280;54877;51.504;3.894;2023-03-13T08:31:12;99662.78;;;15.68;64.35
66398;BME280;54877;51.504;3.894;2023-03-13T08:33:42;99681.03;;;15.63;64.07
66398;BME280;54877;51.504;3.894;2023-03-13T08:38:43;99657.19;;;15.80;63.70
66398;BME280;54877;51.504;3.894;2023-03-13T08:41:13;99658.88;;;15.91;63.67
66398;BME280;54877;51.504;3.894;2023-03-13T08:43:41;99651.59;;;15.93;63.28
66398;BME280;54877;51.504;3.894;2023-03-13T08:46:06;99638.41;;;16.01;63.29
66398;BME280;54877;51.504;3.894;2023-03-13T08:48:31;99637.81;;;16.07;63.06
66398;BME280;54877;51.504;3.894;2023-03-13T08:51:04;99628.84;;;16.08;62.77
66398;BME280;54877;51.504;3.894;2023-03-13T08:53:32;99640.06;;;16.21;62.87
66398;BME280;54877;51.504;3.894;2023-03-13T08:55:58;99633.91;;;16.30;62.74
66398;BME280;54877;51.504;3.894;2023-03-13T08:58:24;99618.72;;;16.21;62.79
66398;BME280;54877;51.504;3.894;2023-03-13T09:00:49;99620.94;;;16.35;62.78
66398;BME280;54877;51.504;3.894;2023-03-13T09:03:15;99619.25;;;16.44;62.33
66398;BME280;54877;51.504;3.894;2023-03-13T09:05:41;99610.25;;;16.35;61.98
66398;BME280;54877;51.504;3.894;2023-03-13T09:08:06;99606.34;;;16.39;62.08
66398;BME280;54877;51.504;3.894;2023-03-13T09:10:32;99624.03;;;16.40;61.51
66398;BME280;54877;51.504;3.894;2023-03-13T09:12:57;99604.47;;;16.50;61.87
66398;BME280;54877;51.504;3.894;2023-03-13T09:15:23;99588.06;;;16.54;61.92
66398;BME280;54877;51.504;3.894;2023-03-13T09:17:48;99611.13;;;16.55;62.00
66398;BME280;54877;51.504;3.894;2023-03-13T09:20:13;99602.66;;;16.40;62.70
66398;BME280;54877;51.504;3.894;2023-03-13T09:22:39;99599.84;;;16.52;62.78
66398;BME280;54877;51.504;3.894;2023-03-13T09:25:05;99592.25;;;16.47;62.71
66398;BME280;54877;51.504;3.894;2023-03-13T09:27:30;99597.31;;;16.50;62.37
66398;BME280;54877;51.504;3.894;2023-03-13T09:29:56;99587.38;;;16.23;62.35
66398;BME280;54877;51.504;3.894;2023-03-13T09:32:21;99579.22;;;16.25;61.97
66398;BME280;54877;51.504;3.894;2023-03-13T09:34:46;99590.72;;;16.44;61.16
66398;BME280;54877;51.504;3.894;2023-03-13T09:37:12;99598.16;;;16.51;60.23
66398;BME280;54877;51.504;3.894;2023-03-13T09:39:37;99578.78;;;16.39;60.46
66398;BME280;54877;51.504;3.894;2023-03-13T09:42:28;99580.19;;;16.33;60.46
66398;BME280;54877;51.504;3.894;2023-03-13T09:45:02;99590.47;;;16.28;60.61
66398;BME280;54877;51.504;3.894;2023-03-13T09:47:43;99581.59;;;16.37;60.44
66398;BME280;54877;51.504;3.894;2023-03-13T09:52:41;99574.41;;;16.38;59.29
66398;BME280;54877;51.504;3.894;2023-03-13T10:00:37;99567.25;;;16.48;59.13
66398;BME280;54877;51.504;3.894;2023-03-13T10:03:10;99569.16;;;16.65;58.99
66398;BME280;54877;51.504;3.894;2023-03-13T10:05:56;99574.97;;;16.61;58.90
66398;BME280;54877;51.504;3.894;2023-03-13T10:08:25;99565.13;;;16.61;59.03
66398;BME280;54877;51.504;3.894;2023-03-13T10:19:07;99565.47;;;17.13;56.55
66398;BME280;54877;51.504;3.894;2023-03-13T10:21:47;99551.56;;;17.09;56.22
66398;BME280;54877;51.504;3.894;2023-03-13T10:24:18;99563.53;;;17.05;56.18
66398;BME280;54877;51.504;3.894;2023-03-13T10:27:21;99556.38;;;17.06;56.26
66398;BME280;54877;51.504;3.894;2023-03-13T10:29:47;99547.56;;;17.23;56.36
66398;BME280;54877;51.504;3.894;2023-03-13T10:32:13;99550.84;;;17.07;56.66
66398;BME280;54877;51.504;3.894;2023-03-13T10:34:56;99553.94;;;17.12;57.09
66398;BME280;54877;51.504;3.894;2023-03-13T10:37:26;99560.09;;;17.40;56.17
66398;BME280;54877;51.504;3.894;2023-03-13T10:39:51;99542.28;;;17.48;55.60
66398;BME280;54877;51.504;3.894;2023-03-13T10:42:26;99547.06;;;17.54;55.30
66398;BME280;54877;51.504;3.894;2023-03-13T10:44:59;99541.97;;;17.61;55.06
66398;BME280;54877;51.504;3.894;2023-03-13T10:47:28;99543.50;;;17.64;55.10
66398;BME280;54877;51.504;3.894;2023-03-13T10:49:57;99558.31;;;17.58;55.02
66398;BME280;54877;51.504;3.894;2023-03-13T10:52:40;99540.94;;;17.44;55.36
66398;BME280;54877;51.504;3.894;2023-03-13T10:55:13;99549.72;;;17.37;55.77
66398;BME280;54877;51.504;3.894;2023-03-13T10:57:58;99547.25;;;17.43;55.76
66398;BME280;54877;51.504;3.894;2023-03-13T11:00:29;99542.13;;;17.32;55.96
66398;BME280;54877;51.504;3.894;2023-03-13T11:02:59;99553.13;;;17.29;55.10
66398;BME280;54877;51.504;3.894;2023-03-13T11:05:29;99547.19;;;17.35;53.77
66398;BME280;54877;51.504;3.894;2023-03-13T11:07:58;99531.59;;;17.48;52.92
66398;BME280;54877;51.504;3.894;2023-03-13T11:10:57;99526.53;;;17.45;52.14
66398;BME280;54877;51.504;3.894;2023-03-13T11:13:29;99536.44;;;17.45;52.30
66398;BME280;54877;51.504;3.894;2023-03-13T11:15:56;99541.59;;;17.46;52.38
66398;BME280;54877;51.504;3.894;2023-03-13T11:21:00;99536.47;;;17.80;52.45
66398;BME280;54877;51.504;3.894;2023-03-13T11:23:32;99517.72;;;17.63;52.61
66398;BME280;54877;51.504;3.894;2023-03-13T11:26:15;99553.00;;;17.76;51.71
66398;BME280;54877;51.504;3.894;2023-03-13T11:28:57;99524.16;;;17.70;51.13
66398;BME280;54877;51.504;3.894;2023-03-13T11:34:11;99528.81;;;17.85;51.54
66398;BME280;54877;51.504;3.894;2023-03-13T11:42:36;99520.53;;;18.14;51.41
66398;BME280;54877;51.504;3.894;2023-03-13T11:45:45;99518.38;;;18.43;51.46
66398;BME280;54877;51.504;3.894;2023-03-13T11:51:02;99511.97;;;18.36;50.46
66398;BME280;54877;51.504;3.894;2023-03-13T11:56:26;99520.34;;;18.15;50.01
66398;BME280;54877;51.504;3.894;2023-03-13T12:01:42;99512.59;;;17.69;48.92
66398;BME280;54877;51.504;3.894;2023-03-13T12:04:23;99520.16;;;17.74;48.31
66398;BME280;54877;51.504;3.894;2023-03-13T12:09:56;99498.84;;;17.64;48.52
66398;BME280;54877;51.504;3.894;2023-03-13T12:17:45;99516.34;;;17.94;48.56
66398;BME280;54877;51.504;3.894;2023-03-13T12:20:17;99510.59;;;17.89;47.83
66398;BME280;54877;51.504;3.894;2023-03-13T12:23:19;99476.09;;;17.86;47.11
66398;BME280;54877;51.504;3.894;2023-03-13T12:31:34;99479.81;;;17.93;47.36
66398;BME280;54877;51.504;3.894;2023-03-13T12:36:53;99484.94;;;18.04;47.00
66398;BME280;54877;51.504;3.894;2023-03-13T12:42:16;99491.72;;;18.16;47.35
66398;BME280;54877;51.504;3.894;2023-03-13T12:44:44;99489.97;;;18.07;46.96
66398;BME280;54877;51.504;3.894;2023-03-13T12:52:34;99482.19;;;17.96;47.24
66398;BME280;54877;51.504;3.894;2023-03-13T12:55:32;99470.25;;;17.65;47.80
66398;BME280;54877;51.504;3.894;2023-03-13T13:01:04;99465.94;;;17.54;47.86
66398;BME280;54877;51.504;3.894;2023-03-13T13:03:35;99457.09;;;17.53;47.72
66398;BME280;54877;51.504;3.894;2023-03-13T13:06:11;99459.97;;;17.42;47.28
66398;BME280;54877;51.504;3.894;2023-03-13T13:13:57;99455.00;;;17.65;46.61
66398;BME280;54877;51.504;3.894;2023-03-13T13:16:23;99454.47;;;17.79;46.92
66398;BME280;54877;51.504;3.894;2023-03-13T13:18:51;99453.25;;;17.74;47.72
66398;BME280;54877;51.504;3.894;2023-03-13T13:23:42;99447.22;;;17.72;47.86
66398;BME280;54877;51.504;3.894;2023-03-13T13:28:56;99434.34;;;18.01;48.08
66398;BME280;54877;51.504;3.894;2023-03-13T13:36:57;99424.03;;;17.80;48.48
66398;BME280;54877;51.504;3.894;2023-03-13T13:39:31;99421.63;;;17.95;48.78
66398;BME280;54877;51.504;3.894;2023-03-13T13:41:57;99417.88;;;17.88;49.16
66398;BME280;54877;51.504;3.894;2023-03-13T13:44:23;99419.94;;;17.94;49.23
66398;BME280;54877;51.504;3.894;2023-03-13T13:46:54;99419.75;;;17.95;48.54
66398;BME280;54877;51.504;3.894;2023-03-13T13:49:31;99398.38;;;18.03;48.57
66398;BME280;54877;51.504;3.894;2023-03-13T13:57:15;99403.88;;;17.94;48.33
66398;BME280;54877;51.504;3.894;2023-03-13T13:59:49;99403.50;;;17.89;48.09
66398;BME280;54877;51.504;3.894;2023-03-13T14:04:50;99391.00;;;17.97;47.19
66398;BME280;54877;51.504;3.894;2023-03-13T14:10:29;99397.06;;;17.82;47.51
66398;BME280;54877;51.504;3.894;2023-03-13T14:13:17;99392.28;;;17.68;47.83
66398;BME280;54877;51.504;3.894;2023-03-13T14:15:47;99389.03;;;17.82;47.86
66398;BME280;54877;51.504;3.894;2023-03-13T14:20:58;99390.56;;;17.84;47.82
66398;BME280;54877;51.504;3.894;2023-03-13T14:23:28;99380.56;;;17.86;48.07
66398;BME280;54877;51.504;3.894;2023-03-13T14:28:42;99385.69;;;17.80;46.71
66398;BME280;54877;51.504;3.894;2023-03-13T14:33:59;99386.72;;;17.87;46.99
66398;BME280;54877;51.504;3.894;2023-03-13T14:36:27;99392.56;;;17.82;47.17
66398;BME280;54877;51.504;3.894;2023-03-13T14:38:56;99391.97;;;17.71;47.50
66398;BME280;54877;51.504;3.894;2023-03-13T14:41:26;99389.59;;;17.85;47.67
66398;BME280;54877;51.504;3.894;2023-03-13T14:43:54;99378.78;;;17.95;47.85
66398;BME280;54877;51.504;3.894;2023-03-13T14:46:35;99376.97;;;18.03;47.56
66398;BME280;54877;51.504;3.894;2023-03-13T14:49:06;99373.75;;;17.92;48.23
66398;BME280;54877;51.504;3.894;2023-03-13T14:51:45;99373.25;;;17.96;48.03
66398;BME280;54877;51.504;3.894;2023-03-13T14:57:02;99370.56;;;17.71;47.97
66398;BME280;54877;51.504;3.894;2023-03-13T14:59:30;99374.97;;;17.80;48.46
66398;BME280;54877;51.504;3.894;2023-03-13T15:02:29;99363.06;;;18.00;48.59
66398;BME280;54877;51.504;3.894;2023-03-13T15:05:05;99359.22;;;18.02;48.04